createdAt,value
2018-06-29T00:00:18.207Z,20.00
2018-06-29T00:02:47.710Z,19.90
2018-06-29T00:05:17.169Z,19.90
2018-06-29T00:07:46.619Z,19.90
2018-06-29T00:10:23.888Z,19.90
2018-06-29T00:12:54.005Z,19.90
2018-06-29T00:15:24.186Z,19.80
2018-06-29T00:17:53.620Z,19.80
2018-06-29T00:20:23.078Z,19.80
2018-06-29T00:22:52.578Z,19.70
2018-06-29T00:25:22.036Z,19.60
2018-06-29T00:27:51.443Z,19.60
2018-06-29T00:32:50.068Z,19.50
2018-06-29T00:35:19.526Z,19.40
2018-06-29T00:37:48.943Z,19.40
2018-06-29T00:40:19.167Z,19.40
2018-06-29T00:42:48.670Z,19.30
2018-06-29T00:45:18.152Z,19.20
2018-06-29T00:47:47.637Z,19.20
2018-06-29T00:50:17.262Z,19.20
2018-06-29T00:52:46.729Z,19.10
2018-06-29T00:55:16.229Z,19.00
2018-06-29T00:57:45.693Z,19.00
2018-06-29T01:00:15.182Z,18.90
2018-06-29T01:02:44.630Z,18.90
2018-06-29T01:05:14.049Z,18.80
2018-06-29T01:07:43.472Z,18.80
2018-06-29T01:10:13.047Z,18.80
2018-06-29T01:12:42.515Z,18.70
2018-06-29T01:15:11.936Z,18.70
2018-06-29T01:17:41.588Z,18.60
2018-06-29T01:20:11.061Z,18.50
2018-06-29T01:22:40.555Z,18.50
2018-06-29T01:25:10.110Z,18.40
2018-06-29T01:27:39.614Z,18.30
2018-06-29T01:30:09.156Z,18.30
2018-06-29T01:32:38.568Z,18.20
2018-06-29T01:35:07.976Z,18.20
2018-06-29T01:37:37.523Z,18.10
2018-06-29T01:42:36.200Z,18.00
2018-06-29T01:45:06.384Z,18.00
2018-06-29T01:47:35.899Z,17.90
2018-06-29T01:50:05.508Z,18.00
2018-06-29T01:52:34.979Z,17.90
2018-06-29T01:55:04.448Z,17.90
2018-06-29T01:57:34.006Z,17.90
2018-06-29T02:00:03.469Z,17.90
2018-06-29T02:02:32.894Z,17.90
2018-06-29T02:05:02.410Z,17.90
2018-06-29T02:07:31.834Z,17.90
2018-06-29T02:10:01.339Z,17.90
2018-06-29T02:12:30.777Z,17.90
2018-06-29T02:15:00.253Z,17.90
2018-06-29T02:17:29.728Z,17.90
2018-06-29T02:19:59.163Z,17.80
2018-06-29T02:22:28.748Z,17.80
2018-06-29T02:24:58.347Z,17.80
2018-06-29T02:27:27.880Z,17.80
2018-06-29T02:29:57.341Z,17.80
2018-06-29T02:32:27.752Z,17.80
2018-06-29T02:34:57.254Z,17.80
2018-06-29T02:37:26.682Z,17.80
2018-06-29T02:42:25.439Z,17.70
2018-06-29T02:44:54.897Z,17.70
2018-06-29T02:47:24.312Z,17.60
2018-06-29T02:49:53.716Z,17.60
2018-06-29T02:52:23.181Z,17.60
2018-06-29T02:54:52.729Z,17.60
2018-06-29T02:57:22.219Z,17.60
2018-06-29T02:59:51.697Z,17.50
2018-06-29T03:02:21.195Z,17.50
2018-06-29T03:07:57.112Z,17.40
2018-06-29T03:12:55.821Z,17.40
2018-06-29T03:15:25.286Z,17.30
2018-06-29T03:17:54.790Z,17.30
2018-06-29T03:20:24.472Z,17.30
2018-06-29T03:22:53.869Z,17.20
2018-06-29T03:25:23.303Z,17.20
2018-06-29T03:27:53.254Z,17.20
2018-06-29T03:30:22.696Z,17.20
2018-06-29T03:32:52.124Z,17.20
2018-06-29T03:35:21.586Z,17.20
2018-06-29T03:37:51.349Z,17.10
2018-06-29T03:40:20.883Z,17.10
2018-06-29T03:42:50.238Z,17.10
2018-06-29T03:45:19.660Z,17.10
2018-06-29T03:47:49.123Z,17.20
2018-06-29T03:50:18.607Z,17.20
2018-06-29T03:52:48.064Z,17.20
2018-06-29T03:55:17.575Z,17.10
2018-06-29T03:57:47.022Z,17.10
2018-06-29T04:00:16.975Z,17.10
2018-06-29T04:02:46.451Z,17.10
2018-06-29T04:05:15.912Z,17.10
2018-06-29T04:07:45.417Z,17.10
2018-06-29T04:10:14.895Z,17.00
2018-06-29T04:12:44.352Z,17.00
2018-06-29T04:17:42.941Z,17.00
2018-06-29T04:20:12.433Z,17.00
2018-06-29T04:22:41.900Z,17.00
2018-06-29T04:25:11.467Z,17.00
2018-06-29T04:27:40.947Z,17.00
2018-06-29T04:30:10.450Z,17.00
2018-06-29T04:32:39.931Z,17.10
2018-06-29T04:35:09.483Z,17.10
2018-06-29T04:37:38.891Z,17.10
2018-06-29T04:40:08.346Z,17.10
2018-06-29T04:42:37.854Z,17.10
2018-06-29T04:45:07.365Z,17.00
2018-06-29T04:47:36.825Z,17.10
2018-06-29T04:50:06.381Z,17.00
2018-06-29T04:52:35.871Z,17.00
2018-06-29T04:55:05.408Z,17.10
2018-06-29T04:57:34.824Z,17.10
2018-06-29T05:00:04.912Z,17.10
2018-06-29T05:02:34.680Z,17.20
2018-06-29T05:05:04.190Z,17.20
2018-06-29T05:07:33.612Z,17.20
2018-06-29T05:10:03.063Z,17.20
2018-06-29T05:12:32.650Z,17.30
2018-06-29T05:15:02.037Z,17.30
2018-06-29T05:17:31.452Z,17.30
2018-06-29T05:20:00.920Z,17.30
2018-06-29T05:22:30.327Z,17.30
2018-06-29T05:24:59.745Z,17.30
2018-06-29T05:27:29.211Z,17.40
2018-06-29T05:29:58.666Z,17.40
2018-06-29T05:32:28.080Z,17.40
2018-06-29T05:34:57.537Z,17.40
2018-06-29T05:37:27.446Z,17.40
2018-06-29T05:39:57.008Z,17.50
2018-06-29T05:42:26.438Z,17.50
2018-06-29T05:44:55.886Z,17.50
2018-06-29T05:49:54.651Z,17.60
2018-06-29T05:52:24.073Z,17.60
2018-06-29T05:54:53.603Z,17.70
2018-06-29T05:57:23.050Z,17.70
2018-06-29T05:59:52.486Z,17.80
2018-06-29T06:02:21.985Z,17.80
2018-06-29T06:04:51.534Z,17.90
2018-06-29T06:07:21.004Z,17.90
2018-06-29T06:09:50.495Z,18.00
2018-06-29T06:12:34.306Z,18.00
2018-06-29T06:15:03.739Z,18.00
2018-06-29T06:17:33.181Z,18.10
2018-06-29T06:20:06.586Z,18.10
2018-06-29T06:25:05.534Z,18.20
2018-06-29T06:27:35.079Z,18.30
2018-06-29T06:30:05.045Z,18.30
2018-06-29T06:32:34.525Z,18.50
2018-06-29T06:35:06.282Z,18.50
2018-06-29T06:37:35.735Z,18.60
2018-06-29T06:40:05.394Z,18.60
2018-06-29T06:42:34.935Z,18.70
2018-06-29T06:45:04.368Z,18.80
2018-06-29T06:47:33.877Z,18.80
2018-06-29T06:50:03.466Z,18.90
2018-06-29T06:52:33.006Z,19.00
2018-06-29T06:55:02.509Z,19.10
2018-06-29T06:57:32.076Z,19.10
2018-06-29T07:00:01.542Z,19.30
2018-06-29T07:02:30.967Z,19.30
2018-06-29T07:05:00.415Z,19.40
2018-06-29T07:07:29.902Z,19.50
2018-06-29T07:09:59.368Z,19.50
2018-06-29T07:12:28.861Z,19.60
2018-06-29T07:14:58.218Z,19.60
2018-06-29T07:17:27.763Z,19.70
2018-06-29T07:19:57.200Z,19.70
2018-06-29T07:22:26.705Z,19.80
2018-06-29T07:24:56.338Z,19.90
2018-06-29T07:27:25.907Z,20.00
2018-06-29T07:32:24.509Z,20.10
2018-06-29T07:34:53.996Z,20.20
2018-06-29T07:37:23.474Z,20.30
2018-06-29T07:39:53.037Z,20.40
2018-06-29T07:42:22.622Z,20.50
2018-06-29T07:44:52.168Z,20.50
2018-06-29T07:47:21.621Z,20.60
2018-06-29T07:49:51.060Z,20.70
2018-06-29T07:52:20.579Z,20.90
2018-06-29T07:54:50.052Z,21.00
2018-06-29T07:57:19.461Z,21.10
2018-06-29T07:59:48.908Z,21.20
2018-06-29T08:02:18.451Z,21.30
2018-06-29T08:04:47.972Z,21.40
2018-06-29T08:07:17.378Z,21.50
2018-06-29T08:09:46.797Z,21.60
2018-06-29T08:12:16.442Z,21.70
2018-06-29T08:14:45.853Z,21.80
2018-06-29T08:17:15.332Z,21.90
2018-06-29T08:19:44.834Z,22.00
2018-06-29T08:22:14.466Z,22.20
2018-06-29T08:25:00.961Z,22.30
2018-06-29T08:27:30.379Z,22.40
2018-06-29T08:29:59.802Z,22.60
2018-06-29T08:32:29.338Z,22.60
2018-06-29T08:34:58.818Z,22.70
2018-06-29T08:37:28.236Z,22.80
2018-06-29T08:39:57.838Z,23.00
2018-06-29T08:42:27.365Z,23.00
2018-06-29T08:44:56.875Z,23.10
2018-06-29T08:47:26.313Z,23.30
2018-06-29T08:49:55.792Z,23.40
2018-06-29T08:52:25.236Z,23.50
2018-06-29T08:54:54.848Z,23.50
2018-06-29T08:57:24.234Z,23.60
2018-06-29T08:59:53.812Z,23.70
2018-06-29T09:02:23.245Z,23.80
2018-06-29T09:04:52.694Z,23.90
2018-06-29T09:07:22.216Z,24.10
2018-06-29T09:09:51.665Z,24.20
2018-06-29T09:12:21.183Z,24.30
2018-06-29T09:14:50.641Z,24.40
2018-06-29T09:17:20.105Z,24.50
2018-06-29T09:19:49.616Z,24.60
2018-06-29T09:22:19.093Z,24.70
2018-06-29T09:24:48.513Z,24.80
2018-06-29T09:27:17.958Z,24.90
2018-06-29T09:29:47.537Z,25.00
2018-06-29T09:32:16.958Z,25.20
2018-06-29T09:34:46.433Z,25.30
2018-06-29T09:37:15.970Z,25.40
2018-06-29T09:39:45.469Z,25.60
2018-06-29T09:42:14.925Z,25.80
2018-06-29T09:44:44.473Z,26.00
2018-06-29T09:47:13.868Z,26.10
2018-06-29T09:49:43.290Z,26.20
2018-06-29T09:52:12.724Z,26.40
2018-06-29T09:54:42.250Z,26.50
2018-06-29T09:57:11.827Z,26.60
2018-06-29T09:59:41.244Z,26.80
2018-06-29T10:02:10.828Z,27.00
2018-06-29T10:04:40.357Z,27.20
2018-06-29T10:07:09.835Z,27.40
2018-06-29T10:09:39.293Z,27.50
2018-06-29T10:12:08.831Z,27.70
2018-06-29T10:14:38.313Z,28.00
2018-06-29T10:17:07.776Z,28.30
2018-06-29T10:19:37.317Z,28.50
2018-06-29T10:22:06.829Z,28.70
2018-06-29T10:24:36.331Z,28.80
2018-06-29T10:27:05.870Z,29.00
2018-06-29T10:29:35.312Z,29.20
2018-06-29T10:32:04.740Z,29.30
2018-06-29T10:34:34.215Z,29.60
2018-06-29T10:37:03.667Z,29.90
2018-06-29T10:39:33.157Z,30.10
2018-06-29T10:42:02.971Z,30.40
2018-06-29T10:44:32.377Z,30.50
2018-06-29T10:47:01.812Z,30.70
2018-06-29T10:49:31.323Z,30.80
2018-06-29T10:52:00.820Z,30.80
2018-06-29T10:54:30.253Z,31.00
2018-06-29T10:56:59.643Z,31.20
2018-06-29T10:59:29.089Z,31.20
2018-06-29T11:01:58.584Z,31.40
2018-06-29T11:04:28.007Z,31.50
2018-06-29T11:06:57.493Z,31.40
2018-06-29T11:09:27.035Z,31.60
2018-06-29T11:11:56.480Z,32.00
2018-06-29T11:14:25.898Z,32.30
2018-06-29T11:16:55.431Z,32.50
2018-06-29T11:19:24.927Z,32.70
2018-06-29T11:21:54.374Z,32.80
2018-06-29T11:24:23.816Z,33.30
2018-06-29T11:26:53.483Z,33.60
2018-06-29T11:29:22.918Z,33.90
2018-06-29T11:31:52.384Z,34.20
2018-06-29T11:34:21.898Z,34.60
2018-06-29T11:36:51.408Z,35.00
2018-06-29T11:39:20.762Z,35.10
2018-06-29T11:41:50.231Z,35.30
2018-06-29T11:44:19.709Z,35.30
2018-06-29T11:46:49.231Z,35.20
2018-06-29T11:49:18.627Z,35.30
2018-06-29T11:51:48.066Z,35.60
2018-06-29T11:54:17.507Z,35.70
2018-06-29T11:56:46.958Z,36.20
2018-06-29T11:59:16.446Z,36.40
2018-06-29T12:01:46.025Z,36.70
2018-06-29T12:04:15.419Z,37.40
2018-06-29T12:09:13.975Z,37.90
2018-06-29T12:11:44.003Z,37.70
2018-06-29T12:14:14.065Z,38.00
2018-06-29T12:16:43.490Z,38.40
2018-06-29T12:19:12.924Z,38.70
2018-06-29T12:21:42.443Z,38.50
2018-06-29T12:24:11.946Z,38.60
2018-06-29T12:26:41.315Z,38.80
2018-06-29T12:29:10.873Z,38.70
2018-06-29T12:31:41.019Z,38.60
2018-06-29T12:34:10.611Z,38.90
2018-06-29T12:36:40.043Z,38.90
2018-06-29T12:39:09.678Z,38.50
2018-06-29T12:41:39.747Z,38.80
2018-06-29T12:44:09.267Z,39.20
2018-06-29T12:46:38.756Z,39.50
2018-06-29T12:49:08.152Z,39.70
2018-06-29T12:51:37.818Z,39.90
2018-06-29T12:54:07.287Z,40.50
2018-06-29T12:56:36.706Z,40.70
2018-06-29T12:59:06.250Z,40.90
2018-06-29T13:01:35.923Z,40.80
2018-06-29T13:04:05.383Z,40.80
2018-06-29T13:06:34.895Z,40.70
2018-06-29T13:09:06.921Z,40.60
2018-06-29T13:11:36.447Z,40.50
2018-06-29T13:14:06.238Z,40.80
2018-06-29T13:16:35.924Z,41.10
2018-06-29T13:19:05.482Z,41.20
2018-06-29T13:21:35.110Z,41.40
2018-06-29T13:24:04.582Z,41.60
2018-06-29T13:26:33.984Z,41.90
2018-06-29T13:29:03.486Z,42.40
2018-06-29T13:31:32.999Z,42.40
2018-06-29T13:34:02.637Z,42.60
2018-06-29T13:36:32.098Z,42.80
2018-06-29T13:39:01.517Z,42.70
2018-06-29T13:41:31.142Z,42.80
2018-06-29T13:44:00.712Z,43.00
2018-06-29T13:48:59.386Z,42.90
2018-06-29T13:51:28.891Z,43.40
2018-06-29T13:53:58.430Z,43.30
2018-06-29T13:56:27.846Z,43.10
2018-06-29T13:58:57.453Z,43.60
2018-06-29T14:01:27.003Z,43.90
2018-06-29T14:03:56.514Z,44.10
2018-06-29T14:06:26.092Z,44.10
2018-06-29T14:08:55.832Z,44.50
2018-06-29T14:11:25.424Z,44.70
2018-06-29T14:13:55.041Z,44.80
2018-06-29T14:16:25.424Z,44.70
2018-06-29T14:18:55.066Z,44.70
2018-06-29T14:21:24.542Z,45.30
2018-06-29T14:23:54.096Z,45.80
2018-06-29T14:26:23.609Z,45.80
2018-06-29T14:28:53.250Z,45.80
2018-06-29T14:31:23.053Z,46.00
2018-06-29T14:33:52.743Z,46.40
2018-06-29T14:36:22.353Z,46.50
2018-06-29T14:38:51.995Z,46.40
2018-06-29T14:41:21.726Z,45.90
2018-06-29T14:43:51.434Z,45.90
2018-06-29T14:46:20.883Z,45.80
2018-06-29T14:48:50.478Z,46.20
2018-06-29T14:51:20.086Z,46.00
2018-06-29T14:53:49.565Z,46.30
2018-06-29T14:56:19.100Z,47.30
2018-06-29T14:58:49.648Z,47.60
2018-06-29T15:01:19.213Z,47.30
2018-06-29T15:03:48.654Z,47.60
2018-06-29T15:06:18.127Z,47.40
2018-06-29T15:08:47.669Z,47.30
2018-06-29T15:11:17.376Z,47.70
2018-06-29T15:13:46.960Z,47.80
2018-06-29T15:16:16.421Z,48.00
2018-06-29T15:18:48.932Z,48.40
2018-06-29T15:21:18.574Z,48.40
2018-06-29T15:23:48.046Z,48.20
2018-06-29T15:26:46.251Z,47.40
2018-06-29T15:29:17.726Z,47.70
2018-06-29T15:31:47.434Z,48.30
2018-06-29T15:34:16.930Z,48.50
2018-06-29T15:36:46.425Z,48.00
2018-06-29T15:39:15.988Z,47.60
2018-06-29T15:41:45.662Z,47.40
2018-06-29T15:44:15.135Z,48.00
2018-06-29T15:46:45.194Z,48.40
2018-06-29T15:49:14.706Z,48.40
2018-06-29T15:51:44.240Z,47.90
2018-06-29T15:54:13.870Z,47.80
2018-06-29T15:56:43.375Z,47.60
2018-06-29T15:59:12.868Z,47.40
2018-06-29T16:01:42.499Z,47.50
2018-06-29T16:04:12.055Z,47.80
2018-06-29T16:06:41.606Z,47.70
2018-06-29T16:09:11.399Z,47.50
2018-06-29T16:11:43.239Z,47.80
2018-06-29T16:14:12.998Z,47.50
2018-06-29T16:16:42.625Z,47.80
2018-06-29T16:19:12.179Z,47.80
2018-06-29T16:21:41.680Z,47.50
2018-06-29T16:24:11.428Z,47.40
2018-06-29T16:26:41.030Z,47.20
2018-06-29T16:29:10.474Z,45.30
2018-06-29T16:31:42.843Z,43.00
2018-06-29T16:34:12.286Z,41.20
2018-06-29T16:36:41.801Z,39.80
2018-06-29T16:39:12.919Z,39.40
2018-06-29T16:41:42.627Z,40.40
2018-06-29T16:44:12.048Z,41.50
2018-06-29T16:46:41.482Z,42.10
2018-06-29T16:49:11.065Z,42.20
2018-06-29T16:51:40.533Z,42.40
2018-06-29T16:54:09.983Z,42.10
2018-06-29T16:56:39.544Z,42.30
2018-06-29T16:59:09.050Z,42.10
2018-06-29T17:01:38.499Z,41.80
2018-06-29T17:04:07.979Z,41.50
2018-06-29T17:06:37.740Z,41.40
2018-06-29T17:09:09.489Z,40.80
2018-06-29T17:11:39.191Z,39.30
2018-06-29T17:14:08.614Z,37.80
2018-06-29T17:16:38.046Z,36.60
2018-06-29T17:19:07.668Z,35.50
2018-06-29T17:21:37.236Z,34.70
2018-06-29T17:24:06.770Z,33.90
2018-06-29T17:26:36.181Z,33.40
2018-06-29T17:29:06.230Z,32.70
2018-06-29T17:31:35.902Z,32.30
2018-06-29T17:34:05.612Z,31.90
2018-06-29T17:36:35.178Z,31.70
2018-06-29T17:39:07.028Z,31.40
2018-06-29T17:41:37.129Z,31.20
2018-06-29T17:44:07.064Z,31.20
2018-06-29T17:46:37.272Z,31.10
2018-06-29T17:49:07.111Z,30.90
2018-06-29T17:51:36.632Z,30.70
2018-06-29T17:54:06.359Z,30.50
2018-06-29T17:56:36.029Z,30.20
2018-06-29T17:59:05.512Z,30.10
2018-06-29T18:01:35.002Z,30.00
2018-06-29T18:04:04.581Z,30.00
2018-06-29T18:06:34.227Z,29.80
2018-06-29T18:09:03.982Z,29.70
2018-06-29T18:11:33.427Z,29.60
2018-06-29T18:14:03.017Z,29.50
2018-06-29T18:16:32.545Z,29.40
2018-06-29T18:19:02.495Z,29.30
2018-06-29T18:21:32.142Z,29.20
2018-06-29T18:24:01.804Z,29.10
2018-06-29T18:26:31.606Z,29.10
2018-06-29T18:29:01.536Z,29.00
2018-06-29T18:31:31.436Z,28.90
2018-06-29T18:34:01.624Z,28.70
2018-06-29T18:36:31.575Z,28.60
2018-06-29T18:39:01.858Z,28.50
2018-06-29T18:41:31.892Z,28.40
2018-06-29T18:44:01.736Z,28.40
2018-06-29T18:46:31.669Z,28.30
2018-06-29T18:49:01.581Z,28.10
2018-06-29T18:51:31.584Z,28.00
2018-06-29T18:54:01.437Z,28.00
2018-06-29T18:56:31.473Z,27.90
2018-06-29T18:59:01.451Z,27.80
2018-06-29T19:01:31.493Z,27.70
2018-06-29T19:04:01.256Z,27.60
2018-06-29T19:06:31.155Z,27.60
2018-06-29T19:09:01.091Z,27.40
2018-06-29T19:11:31.115Z,27.40
2018-06-29T19:14:00.986Z,27.30
2018-06-29T19:16:30.956Z,27.30
2018-06-29T19:23:22.789Z,27.10
2018-06-29T19:26:47.695Z,26.90
2018-06-29T19:30:12.529Z,26.80
2018-06-29T19:33:37.867Z,26.70
2018-06-29T19:37:02.956Z,26.50
2018-06-29T19:40:27.979Z,26.40
2018-06-29T19:43:52.796Z,26.20
2018-06-29T19:47:17.955Z,26.10
2018-06-29T19:50:42.871Z,26.00
2018-06-29T19:54:08.545Z,25.90
2018-06-29T19:57:33.048Z,25.80
2018-06-29T20:00:58.289Z,25.70
2018-06-29T20:04:23.158Z,25.60
2018-06-29T20:07:47.899Z,25.40
2018-06-29T20:11:12.946Z,25.30
2018-06-29T20:14:37.933Z,25.10
2018-06-29T20:18:02.440Z,25.00
2018-06-29T20:21:26.850Z,24.90
2018-06-29T20:24:51.704Z,24.90
2018-06-29T20:28:16.203Z,24.80
2018-06-29T20:31:40.649Z,24.70
2018-06-29T20:35:05.101Z,24.60
2018-06-29T20:38:29.640Z,24.40
2018-06-29T20:41:54.071Z,24.40
2018-06-29T20:45:18.563Z,24.30
2018-06-29T20:48:43.895Z,24.10
2018-06-29T20:52:08.813Z,24.00
2018-06-29T20:55:33.475Z,23.90
2018-06-29T20:58:58.405Z,23.80
2018-06-29T21:02:23.510Z,23.70
2018-06-29T21:05:48.712Z,23.60
2018-06-29T21:09:13.838Z,23.50
2018-06-29T21:12:38.929Z,23.40
2018-06-29T21:16:04.362Z,23.30
2018-06-29T21:19:29.276Z,23.20
2018-06-29T21:22:53.783Z,23.10
2018-06-29T21:26:18.732Z,23.00
2018-06-29T21:29:43.610Z,22.90
2018-06-29T21:33:08.413Z,22.80
2018-06-29T21:36:32.805Z,22.70
2018-06-29T21:39:57.531Z,22.70
2018-06-29T21:43:22.071Z,22.70
2018-06-29T21:46:46.520Z,22.60
2018-06-29T21:50:11.052Z,22.50
2018-06-29T21:53:35.530Z,22.40
2018-06-29T21:57:00.006Z,22.30
2018-06-29T22:00:28.631Z,22.30
2018-06-29T22:03:53.258Z,22.20
2018-06-29T22:07:17.733Z,22.10
2018-06-29T22:10:42.222Z,22.10
2018-06-29T22:14:06.873Z,22.00
2018-06-29T22:17:31.600Z,21.90
2018-06-29T22:20:56.092Z,21.80
2018-06-29T22:24:20.640Z,21.80
2018-06-29T22:27:45.139Z,21.70
2018-06-29T22:31:09.734Z,21.60
2018-06-29T22:34:34.323Z,21.50
2018-06-29T22:37:58.841Z,21.40
2018-06-29T22:41:23.501Z,21.40
2018-06-29T22:44:48.027Z,21.40
2018-06-29T22:48:12.546Z,21.30
2018-06-29T22:51:37.122Z,21.20
2018-06-29T22:55:01.671Z,21.10
2018-06-29T22:58:26.315Z,21.10
2018-06-29T23:01:50.821Z,21.00
2018-06-29T23:05:15.389Z,20.90
2018-06-29T23:08:39.932Z,20.80
2018-06-29T23:12:04.580Z,20.70
2018-06-29T23:15:30.199Z,20.70
2018-06-29T23:18:54.740Z,20.60
2018-06-29T23:22:19.304Z,20.50
2018-06-29T23:25:44.435Z,20.50
2018-06-29T23:29:09.114Z,20.40
2018-06-29T23:32:34.713Z,20.30
2018-06-29T23:35:59.155Z,20.30
2018-06-29T23:39:23.685Z,20.20
2018-06-29T23:42:48.286Z,20.10
2018-06-29T23:53:02.095Z,19.90
2018-06-29T23:56:26.631Z,19.80
2018-06-29T23:59:51.150Z,19.80
